San Francisco, CA (94131)

2:30 PM PDT on April 25, 2017 (GMT -0700)
MC9629 | | Change Station

Elev 393 ft 37.74 °N, 122.44 °W | Updated 42 days ago

Partly Cloudy
Partly Cloudy
76.0 °F
Feels Like 78 °F
N
1.0
Wind Variable Wind from ENE

Today
High -- | Low -- °F
--% Chance of Precip.
Yesterday
High -- | Low -- °F
Precip. -- in
Pressure 30.11 in
Visibility 10.0 miles
Clouds Few 3100 ft
Mostly Cloudy 20000 ft
Heat Index 78 °F
Dew Point 57.0 °F
Humidity 52%
Rainfall 0.00 in
Snow Depth Not available.
6:20 AM 7:54 PM
Waning Crescent, 1% visible
METAR KSFO 252056Z 26018G24KT 10SM FEW031 BKN200 17/09 A3011 RMK AO2 SLP195 T01720094 55002
Pressure 30.11 in
Visibility 10.0 miles
Clouds Few 3100 ft
Mostly Cloudy 20000 ft
Heat Index 78 °F
Dew Point 57.0 °F
Humidity 52%
Rainfall 0.00 in
Snow Depth Not available.
6:20 AM 7:54 PM
Waning Crescent, 1% visible
METAR KSFO 252056Z 26018G24KT 10SM FEW031 BKN200 17/09 A3011 RMK AO2 SLP195 T01720094 55002

Get Severe Weather Alerts

Thanks for signing up!

Be on the lookout for a verification email in your inbox.

You'll start receiving the daily forecast at 8 AM.

×

10-Day Weather Forecast

Almanac

Astronomy

Apr. 25, 2017 Rise Set
Actual Time
Civil Twilight
Nautical Twilight
Astronomical Twilight
Moon
Length of Visible Light
Length of Day
Tomorrow will be .
, % of the Moon is Illuminated

Today's Extremes

State Highs State Lows

Community

WunderPhotos

WunderBlog® & News

Nearby

Air Quality

  Air Quality AQ Index Pollutant
Not available.

Snow Depth

Station Depth Elevation

Earthquake Activity

City Distance Mag. Time & Date
Minimum magnitude displayed is 2.5.

Coastal Water Temperatures

Place Temperature

Stations

Nearby Weather Stations

Station Location Temp. Windchill Dew Point Humidity Wind Precip. Elev Updated Type
                   

Watches & Warnings

There are currently no watches in effect.